Time;durP1;ratioP1;P1;durP2;ratioP2;P2;SDS_P1;SDS_P2;PMS_P1;PMS_P2;Temp;Humidity;BMP_temperature;BMP_pressure;BME280_temperature;BME280_humidity;BME280_pressure;Samples;Min_cycle;Max_cycle;Signal;HPM_P1;HPM_P2
2022/12/04 00:01:39;;;;;;;;;;;18.00;46.10;;;;;;5061646;27;20366;-55
2022/12/04 00:04:05;;;;;;;;;;;18.00;46.00;;;;;;5058623;28;19973;-55
2022/12/04 00:06:32;;;;;;;;;;;18.00;46.10;;;;;;5063142;27;19955;-56
2022/12/04 00:08:58;;;;;;;;;;;18.00;46.10;;;;;;5060726;28;19964;-54
2022/12/04 00:11:24;;;;;;;;;;;18.00;46.10;;;;;;5063421;28;19917;-56
2022/12/04 00:13:49;;;;;;;;;;;18.00;46.70;;;;;;5057663;27;19967;-57
2022/12/04 00:16:16;;;;;;;;;;;18.00;46.00;;;;;;5061640;28;20052;-55
2022/12/04 00:18:41;;;;;;;;;;;18.00;46.00;;;;;;5058129;28;19955;-56
2022/12/04 00:21:07;;;;;;;;;;;18.00;45.90;;;;;;5047050;28;19946;-56
2022/12/04 00:23:33;;;;;;;;;;;18.00;45.90;;;;;;5050931;28;19913;-56
2022/12/04 00:26:01;;;;;;;;;;;18.00;45.90;;;;;;5049455;28;20245;-56
2022/12/04 00:28:27;;;;;;;;;;;18.00;45.90;;;;;;5047595;28;20318;-55
2022/12/04 00:30:53;;;;;;;;;;;17.90;45.80;;;;;;5048676;28;19916;-56
2022/12/04 00:33:18;;;;;;;;;;;17.90;45.70;;;;;;5051071;28;20294;-55
2022/12/04 00:35:43;;;;;;;;;;;17.90;45.80;;;;;;5057813;28;19939;-56
2022/12/04 00:38:09;;;;;;;;;;;17.90;45.80;;;;;;5049594;28;19924;-55
2022/12/04 00:40:34;;;;;;;;;;;17.90;45.70;;;;;;5048113;28;21010;-55
2022/12/04 00:43:00;;;;;;;;;;;17.90;45.80;;;;;;5048769;27;19920;-56
2022/12/04 00:45:25;;;;;;;;;;;17.90;45.80;;;;;;5049575;28;20058;-56
2022/12/04 00:47:51;;;;;;;;;;;17.90;45.70;;;;;;5049974;28;19913;-56
2022/12/04 00:50:16;;;;;;;;;;;17.90;46.10;;;;;;5047171;28;19979;-56
2022/12/04 00:52:42;;;;;;;;;;;17.90;45.60;;;;;;5049290;28;19920;-56
2022/12/04 00:55:07;;;;;;;;;;;17.90;45.60;;;;;;5051021;28;19969;-55
2022/12/04 00:57:33;;;;;;;;;;;17.90;45.50;;;;;;5058709;28;20003;-56
2022/12/04 00:59:58;;;;;;;;;;;17.90;45.50;;;;;;5048585;28;20015;-55
2022/12/04 01:02:24;;;;;;;;;;;17.90;45.60;;;;;;5047526;28;19928;-56
2022/12/04 01:04:49;;;;;;;;;;;17.90;45.50;;;;;;5050183;28;19921;-56
2022/12/04 01:07:14;;;;;;;;;;;17.90;45.50;;;;;;5047466;28;19925;-55
2022/12/04 01:09:40;;;;;;;;;;;17.90;45.50;;;;;;5047691;28;19920;-56
2022/12/04 01:12:05;;;;;;;;;;;17.90;45.40;;;;;;5050397;28;20384;-54
2022/12/04 01:14:31;;;;;;;;;;;17.90;45.40;;;;;;5048035;28;19920;-56
2022/12/04 01:16:56;;;;;;;;;;;17.90;45.20;;;;;;5047399;28;19964;-56
2022/12/04 01:19:22;;;;;;;;;;;18.00;45.10;;;;;;5046830;28;20253;-54
2022/12/04 01:21:47;;;;;;;;;;;18.00;45.20;;;;;;5049696;28;20296;-55
2022/12/04 01:24:12;;;;;;;;;;;17.90;45.10;;;;;;5054268;28;20296;-56
2022/12/04 01:26:38;;;;;;;;;;;17.90;45.10;;;;;;5046262;28;20015;-55
2022/12/04 01:29:03;;;;;;;;;;;17.90;45.10;;;;;;5048543;28;19957;-55
2022/12/04 01:31:29;;;;;;;;;;;17.90;45.10;;;;;;5049849;28;19920;-56
2022/12/04 01:33:54;;;;;;;;;;;17.90;45.00;;;;;;5050981;28;19921;-56
2022/12/04 01:36:21;;;;;;;;;;;18.00;45.10;;;;;;5050683;28;20633;-56
2022/12/04 01:38:46;;;;;;;;;;;17.90;45.00;;;;;;5048400;28;20403;-57
2022/12/04 01:41:12;;;;;;;;;;;17.90;44.90;;;;;;5047447;28;19920;-56
2022/12/04 01:43:37;;;;;;;;;;;17.90;44.90;;;;;;5048334;28;19918;-55
2022/12/04 01:46:03;;;;;;;;;;;17.90;44.90;;;;;;5047434;28;19919;-55
2022/12/04 01:48:30;;;;;;;;;;;17.90;44.80;;;;;;5048035;28;19916;-55
2022/12/04 01:51:15;;;;;;;;;;;17.90;44.80;;;;;;5036697;27;20363;-55
2022/12/04 01:53:41;;;;;;;;;;;17.90;44.90;;;;;;5047745;28;19982;-55
2022/12/04 01:56:06;;;;;;;;;;;17.90;44.80;;;;;;5050854;28;19952;-55
2022/12/04 01:58:33;;;;;;;;;;;17.80;44.80;;;;;;5059231;28;20283;-55
2022/12/04 02:00:59;;;;;;;;;;;17.90;44.80;;;;;;5050648;27;19920;-54
2022/12/04 02:03:25;;;;;;;;;;;17.90;44.70;;;;;;5048510;28;19921;-55
2022/12/04 02:05:50;;;;;;;;;;;17.90;44.70;;;;;;5047427;28;19912;-56
2022/12/04 02:08:16;;;;;;;;;;;17.80;44.60;;;;;;5046235;27;19973;-53
2022/12/04 02:10:45;;;;;;;;;;;17.90;44.80;;;;;;5047529;28;20035;-54
2022/12/04 02:13:30;;;;;;;;;;;17.90;44.70;;;;;;5048700;28;20288;-56
2022/12/04 02:15:55;;;;;;;;;;;17.90;44.60;;;;;;5046318;27;19916;-56
2022/12/04 02:18:29;;;;;;;;;;;17.90;44.50;;;;;;5047646;28;19999;-57
2022/12/04 02:20:58;;;;;;;;;;;17.90;44.60;;;;;;5048552;28;19924;-56
2022/12/04 02:23:38;;;;;;;;;;;17.80;44.50;;;;;;5046580;28;20386;-54
2022/12/04 02:26:07;;;;;;;;;;;17.90;44.60;;;;;;5045449;28;19921;-56
2022/12/04 02:29:08;;;;;;;;;;;18.00;44.40;;;;;;5051536;28;19955;-55
2022/12/04 02:31:39;;;;;;;;;;;18.10;44.10;;;;;;4969206;28;20355;-57
2022/12/04 02:34:13;;;;;;;;;;;18.10;43.80;;;;;;5035883;28;19985;-54
2022/12/04 02:37:04;;;;;;;;;;;18.20;43.80;;;;;;5046869;27;19921;-55
2022/12/04 02:39:34;;;;;;;;;;;18.30;43.60;;;;;;5047528;28;19921;-56
2022/12/04 02:42:04;;;;;;;;;;;18.40;43.40;;;;;;5045786;28;19927;-56
2022/12/04 02:44:32;;;;;;;;;;;18.50;43.20;;;;;;5054225;27;20356;-55
2022/12/04 02:46:59;;;;;;;;;;;18.50;43.20;;;;;;5032981;28;20400;-56
2022/12/04 02:49:27;;;;;;;;;;;18.60;43.20;;;;;;5046921;28;19920;-55
2022/12/04 02:51:52;;;;;;;;;;;18.70;43.00;;;;;;5046610;28;19913;-54
2022/12/04 02:54:22;;;;;;;;;;;18.70;42.90;;;;;;5046797;28;20273;-55
2022/12/04 02:56:47;;;;;;;;;;;18.60;42.80;;;;;;5036948;28;20387;-55
2022/12/04 02:59:17;;;;;;;;;;;18.60;42.90;;;;;;5051585;28;19917;-56
2022/12/04 03:01:45;;;;;;;;;;;18.50;43.00;;;;;;5048450;28;20016;-56
2022/12/04 03:04:12;;;;;;;;;;;18.50;43.00;;;;;;5032432;28;20420;-56
2022/12/04 03:06:38;;;;;;;;;;;18.50;42.80;;;;;;5046605;28;19913;-56
2022/12/04 03:09:14;;;;;;;;;;;18.60;42.60;;;;;;5037119;28;19926;-56
2022/12/04 03:11:40;;;;;;;;;;;18.60;42.30;;;;;;5033829;28;19921;-56
2022/12/04 03:14:10;;;;;;;;;;;18.60;42.20;;;;;;5048413;28;20375;-56
2022/12/04 03:16:39;;;;;;;;;;;18.70;42.00;;;;;;5046571;27;19920;-55
2022/12/04 03:19:15;;;;;;;;;;;18.70;41.80;;;;;;5050747;28;19923;-56
2022/12/04 03:21:43;;;;;;;;;;;18.70;41.60;;;;;;5031090;28;19980;-56
2022/12/04 03:24:27;;;;;;;;;;;18.80;41.50;;;;;;5032869;28;19913;-57
2022/12/04 03:27:00;;;;;;;;;;;18.80;41.40;;;;;;5046310;28;19921;-55
2022/12/04 03:29:30;;;;;;;;;;;18.90;41.30;;;;;;5045195;27;19972;-56
2022/12/04 03:32:02;;;;;;;;;;;18.90;41.20;;;;;;5043223;27;19957;-56
2022/12/04 03:34:31;;;;;;;;;;;18.90;41.20;;;;;;5050602;28;19924;-56
2022/12/04 03:36:58;;;;;;;;;;;18.90;41.20;;;;;;5048520;28;19920;-56
2022/12/04 03:39:30;;;;;;;;;;;18.90;41.30;;;;;;5050659;28;19917;-54
2022/12/04 03:42:19;;;;;;;;;;;18.90;41.30;;;;;;5036304;27;20478;-56
2022/12/04 03:44:44;;;;;;;;;;;18.90;41.40;;;;;;5049500;28;19966;-56
2022/12/04 03:47:17;;;;;;;;;;;18.90;41.40;;;;;;5050576;28;20443;-56
2022/12/04 03:50:02;;;;;;;;;;;18.90;41.30;;;;;;5037254;27;19926;-56
2022/12/04 03:52:28;;;;;;;;;;;18.90;41.80;;;;;;5041888;27;19917;-55
2022/12/04 03:54:59;;;;;;;;;;;18.90;41.50;;;;;;5048751;28;19924;-56
2022/12/04 03:57:27;;;;;;;;;;;18.90;41.50;;;;;;5035509;27;19932;-55
2022/12/04 03:59:54;;;;;;;;;;;18.90;42.20;;;;;;5037749;27;20007;-55
2022/12/04 04:02:20;;;;;;;;;;;18.90;41.60;;;;;;5059345;28;19970;-56
2022/12/04 04:04:46;;;;;;;;;;;18.80;41.50;;;;;;5055644;28;19921;-55
2022/12/04 04:07:14;;;;;;;;;;;18.80;41.50;;;;;;5040830;27;19913;-56
2022/12/04 04:09:40;;;;;;;;;;;18.80;41.50;;;;;;5048588;27;19917;-55
2022/12/04 04:12:06;;;;;;;;;;;18.80;41.50;;;;;;5040049;27;19916;-55
2022/12/04 04:25:36;;;;;;;;;;;18.70;41.30;;;;;;5051941;27;20311;-56
2022/12/04 04:28:02;;;;;;;;;;;18.70;41.20;;;;;;5039736;27;21237;-56
2022/12/04 04:30:27;;;;;;;;;;;18.70;41.30;;;;;;5047792;28;19912;-55
2022/12/04 04:33:13;;;;;;;;;;;18.70;41.20;;;;;;5037995;27;20484;-56
2022/12/04 04:35:45;;;;;;;;;;;18.70;41.10;;;;;;5045637;28;19961;-56
2022/12/04 04:38:14;;;;;;;;;;;18.70;41.10;;;;;;5033653;27;19965;-56
2022/12/04 04:40:45;;;;;;;;;;;18.70;41.00;;;;;;5047171;28;20398;-56
2022/12/04 04:43:13;;;;;;;;;;;18.70;40.90;;;;;;5049522;28;20004;-55
2022/12/04 04:46:05;;;;;;;;;;;18.70;40.90;;;;;;5048591;28;19919;-55
2022/12/04 04:48:35;;;;;;;;;;;18.70;40.70;;;;;;5022218;28;19936;-55
2022/12/04 04:51:01;;;;;;;;;;;18.70;40.70;;;;;;5044598;27;19946;-55
2022/12/04 04:53:32;;;;;;;;;;;18.70;40.90;;;;;;5037865;27;20046;-55
2022/12/04 04:55:57;;;;;;;;;;;18.70;40.90;;;;;;5059422;27;19920;-57
2022/12/04 04:58:23;;;;;;;;;;;18.70;40.80;;;;;;5056583;28;20488;-56
2022/12/04 05:01:00;;;;;;;;;;;18.70;40.90;;;;;;5047329;28;19974;-57
2022/12/04 05:03:26;;;;;;;;;;;18.70;40.90;;;;;;5055234;28;19957;-56
2022/12/04 05:05:51;;;;;;;;;;;18.80;40.90;;;;;;5048984;28;19963;-56
2022/12/04 05:08:17;;;;;;;;;;;18.80;40.80;;;;;;5049185;28;19920;-56
2022/12/04 05:10:42;;;;;;;;;;;18.70;40.80;;;;;;5048586;27;20011;-56
2022/12/04 05:13:08;;;;;;;;;;;18.80;40.80;;;;;;5049277;28;19960;-56
2022/12/04 05:15:33;;;;;;;;;;;18.70;40.80;;;;;;5037915;27;19917;-55
2022/12/04 05:17:59;;;;;;;;;;;18.70;40.90;;;;;;5046708;28;20060;-55
2022/12/04 05:20:24;;;;;;;;;;;18.70;40.90;;;;;;5048043;28;19929;-56
2022/12/04 05:22:50;;;;;;;;;;;18.70;40.90;;;;;;5048305;28;19920;-56
2022/12/04 05:25:15;;;;;;;;;;;18.60;40.80;;;;;;5048998;28;19921;-55
2022/12/04 05:27:41;;;;;;;;;;;18.60;40.90;;;;;;5049781;28;19922;-55
2022/12/04 05:30:06;;;;;;;;;;;18.60;40.90;;;;;;5047211;27;20012;-55
2022/12/04 05:32:32;;;;;;;;;;;18.60;40.80;;;;;;5048492;27;19981;-56
2022/12/04 05:34:58;;;;;;;;;;;18.60;40.90;;;;;;5046887;28;19924;-55
2022/12/04 05:37:23;;;;;;;;;;;18.60;40.90;;;;;;5050041;27;19932;-54
2022/12/04 05:39:49;;;;;;;;;;;18.60;40.60;;;;;;5047023;28;19913;-56
2022/12/04 05:42:14;;;;;;;;;;;18.60;40.80;;;;;;5047540;28;19920;-55
2022/12/04 05:44:39;;;;;;;;;;;18.60;40.50;;;;;;5047473;28;19920;-56
2022/12/04 05:47:05;;;;;;;;;;;18.70;40.60;;;;;;5049659;28;19916;-55
2022/12/04 05:49:31;;;;;;;;;;;18.60;40.50;;;;;;5048893;28;19916;-55
2022/12/04 05:51:56;;;;;;;;;;;18.70;40.40;;;;;;5038989;27;19971;-56
2022/12/04 05:54:22;;;;;;;;;;;18.60;40.40;;;;;;5049202;28;19976;-56
2022/12/04 05:56:47;;;;;;;;;;;18.70;40.40;;;;;;5047560;28;19924;-56
2022/12/04 05:59:13;;;;;;;;;;;18.60;40.20;;;;;;5050720;28;19917;-56
2022/12/04 06:01:39;;;;;;;;;;;18.70;40.30;;;;;;5055321;28;19913;-55
2022/12/04 06:04:04;;;;;;;;;;;18.70;40.30;;;;;;5047999;27;19923;-56
2022/12/04 06:06:29;;;;;;;;;;;18.70;40.20;;;;;;5047330;28;19924;-56
2022/12/04 06:08:55;;;;;;;;;;;18.70;40.20;;;;;;5046524;28;19917;-56
2022/12/04 06:11:27;;;;;;;;;;;18.70;40.20;;;;;;5048025;28;19965;-55
2022/12/04 06:13:53;;;;;;;;;;;18.70;40.30;;;;;;5049641;28;19917;-55
2022/12/04 06:16:23;;;;;;;;;;;18.70;40.30;;;;;;5050257;28;19920;-56
2022/12/04 06:18:52;;;;;;;;;;;18.70;40.30;;;;;;5047196;28;19913;-55
2022/12/04 06:21:18;;;;;;;;;;;18.70;40.20;;;;;;5046918;28;19921;-56
2022/12/04 06:23:43;;;;;;;;;;;18.70;40.20;;;;;;5048541;28;19928;-55
2022/12/04 06:26:09;;;;;;;;;;;18.70;40.20;;;;;;5046305;28;19957;-56
2022/12/04 06:28:34;;;;;;;;;;;18.70;40.10;;;;;;5048796;28;19917;-56
2022/12/04 06:31:03;;;;;;;;;;;18.70;40.20;;;;;;5046457;28;20349;-56
2022/12/04 06:33:29;;;;;;;;;;;18.70;40.20;;;;;;5047319;28;19982;-56
2022/12/04 06:36:01;;;;;;;;;;;18.70;40.30;;;;;;5049004;28;19956;-56
2022/12/04 06:38:26;;;;;;;;;;;18.60;40.40;;;;;;5047822;28;19965;-56
2022/12/04 06:40:52;;;;;;;;;;;18.50;40.40;;;;;;5046081;28;19916;-57
2022/12/04 06:43:17;;;;;;;;;;;18.50;40.40;;;;;;5047988;28;19913;-56
2022/12/04 06:45:43;;;;;;;;;;;18.50;40.40;;;;;;5047738;27;20101;-56
2022/12/04 06:48:08;;;;;;;;;;;18.50;40.50;;;;;;5048514;28;19956;-57
2022/12/04 06:50:33;;;;;;;;;;;18.50;40.40;;;;;;5047253;28;19920;-55
2022/12/04 06:52:59;;;;;;;;;;;18.50;40.30;;;;;;5046592;28;19913;-55
2022/12/04 06:55:24;;;;;;;;;;;18.50;40.40;;;;;;5048379;27;20419;-56
2022/12/04 06:57:50;;;;;;;;;;;18.50;40.30;;;;;;5048150;27;20425;-54
2022/12/04 07:00:15;;;;;;;;;;;18.60;40.30;;;;;;5048978;28;20313;-56
2022/12/04 07:02:41;;;;;;;;;;;18.60;40.20;;;;;;5046977;28;19917;-55
2022/12/04 07:05:06;;;;;;;;;;;18.60;40.00;;;;;;5047636;28;19921;-56
2022/12/04 07:07:32;;;;;;;;;;;18.60;39.90;;;;;;5050991;28;19917;-55
2022/12/04 07:09:57;;;;;;;;;;;18.60;39.90;;;;;;5050058;28;20007;-55
2022/12/04 07:12:23;;;;;;;;;;;18.60;39.90;;;;;;5052186;28;19917;-55
2022/12/04 07:14:48;;;;;;;;;;;18.60;39.90;;;;;;5049431;28;19921;-56
2022/12/04 07:17:13;;;;;;;;;;;18.60;39.70;;;;;;5051400;28;19920;-55
2022/12/04 07:19:39;;;;;;;;;;;18.60;39.90;;;;;;5049726;28;19917;-55
2022/12/04 07:22:05;;;;;;;;;;;18.60;39.80;;;;;;5050269;28;19920;-55
2022/12/04 07:24:30;;;;;;;;;;;18.60;39.90;;;;;;5050666;28;19944;-56
2022/12/04 07:26:56;;;;;;;;;;;18.60;39.80;;;;;;5049237;27;20050;-56
2022/12/04 07:29:21;;;;;;;;;;;18.60;39.70;;;;;;5048446;27;20063;-56
2022/12/04 07:31:46;;;;;;;;;;;18.60;39.90;;;;;;5050001;27;19933;-54
2022/12/04 07:34:12;;;;;;;;;;;18.60;39.90;;;;;;5050255;28;19924;-54
2022/12/04 07:36:37;;;;;;;;;;;18.60;39.80;;;;;;5048674;28;19917;-55
2022/12/04 07:39:03;;;;;;;;;;;18.60;39.80;;;;;;5049053;27;19919;-56
2022/12/04 07:41:28;;;;;;;;;;;18.60;39.90;;;;;;5050231;28;19950;-55
2022/12/04 07:43:54;;;;;;;;;;;18.60;40.00;;;;;;5049635;28;19923;-55
2022/12/04 07:46:20;;;;;;;;;;;18.50;40.00;;;;;;5048534;27;19920;-55
2022/12/04 07:48:46;;;;;;;;;;;18.50;40.10;;;;;;5048691;28;20521;-56
2022/12/04 07:51:12;;;;;;;;;;;18.50;40.20;;;;;;5049876;28;19952;-55
2022/12/04 07:53:38;;;;;;;;;;;18.50;40.10;;;;;;5050107;28;19917;-55
2022/12/04 07:56:03;;;;;;;;;;;18.50;40.20;;;;;;5049530;28;20344;-55
2022/12/04 07:58:29;;;;;;;;;;;18.50;40.20;;;;;;5048304;28;19916;-55
2022/12/04 08:00:54;;;;;;;;;;;18.50;40.10;;;;;;5057922;28;19916;-55
2022/12/04 08:03:20;;;;;;;;;;;18.50;40.00;;;;;;5050870;28;19921;-56
2022/12/04 08:05:45;;;;;;;;;;;18.50;40.00;;;;;;5049046;28;20329;-56
2022/12/04 08:08:11;;;;;;;;;;;18.50;40.00;;;;;;5050334;28;20303;-56
2022/12/04 08:10:40;;;;;;;;;;;18.50;39.90;;;;;;5049626;28;19912;-57
2022/12/04 08:13:05;;;;;;;;;;;18.60;39.80;;;;;;5049402;28;19955;-56
2022/12/04 08:15:32;;;;;;;;;;;18.60;39.70;;;;;;5050574;27;19967;-55
2022/12/04 08:17:58;;;;;;;;;;;18.60;39.70;;;;;;5049039;27;19931;-56
2022/12/04 08:20:23;;;;;;;;;;;18.60;39.70;;;;;;5056203;28;20816;-56
2022/12/04 08:22:49;;;;;;;;;;;18.60;39.60;;;;;;5054846;28;20380;-55
2022/12/04 08:25:14;;;;;;;;;;;18.60;39.60;;;;;;5051483;28;20379;-56
2022/12/04 08:27:45;;;;;;;;;;;18.60;39.60;;;;;;5048499;28;20371;-55
2022/12/04 08:30:11;;;;;;;;;;;18.60;39.50;;;;;;5048575;28;19921;-55
2022/12/04 08:32:36;;;;;;;;;;;18.60;39.40;;;;;;5048946;28;19966;-56
2022/12/04 08:35:01;;;;;;;;;;;18.60;39.40;;;;;;5049610;27;19917;-56
2022/12/04 08:37:27;;;;;;;;;;;18.60;39.50;;;;;;5049264;28;19921;-56
2022/12/04 08:39:52;;;;;;;;;;;18.70;39.60;;;;;;5049927;28;20011;-56
2022/12/04 08:42:18;;;;;;;;;;;18.60;39.60;;;;;;5061072;28;20412;-55
2022/12/04 08:44:43;;;;;;;;;;;18.60;39.60;;;;;;5054870;28;20428;-56
2022/12/04 08:47:09;;;;;;;;;;;18.60;39.60;;;;;;5043667;28;19957;-56
2022/12/04 08:49:34;;;;;;;;;;;18.60;40.30;;;;;;5057647;28;19921;-55
2022/12/04 08:52:00;;;;;;;;;;;18.60;39.70;;;;;;5061010;28;19921;-55
2022/12/04 08:54:25;;;;;;;;;;;18.60;39.80;;;;;;5060463;28;20341;-54
2022/12/04 08:56:51;;;;;;;;;;;18.60;39.90;;;;;;5062315;28;20380;-55
2022/12/04 08:59:16;;;;;;;;;;;18.50;39.80;;;;;;5055013;28;20336;-55
2022/12/04 09:01:41;;;;;;;;;;;18.50;39.90;;;;;;5057595;27;19920;-55
2022/12/04 09:04:07;;;;;;;;;;;18.50;39.90;;;;;;5048574;28;20007;-56
2022/12/04 09:06:32;;;;;;;;;;;18.50;40.00;;;;;;5048829;28;19920;-55
2022/12/04 09:08:58;;;;;;;;;;;18.50;39.90;;;;;;5049588;27;19917;-56
2022/12/04 09:11:24;;;;;;;;;;;18.50;39.90;;;;;;5047748;28;19917;-54
2022/12/04 09:13:50;;;;;;;;;;;18.60;40.00;;;;;;5044909;28;19921;-56
2022/12/04 09:16:16;;;;;;;;;;;18.60;39.90;;;;;;5047312;27;19984;-56
2022/12/04 09:18:42;;;;;;;;;;;18.60;39.60;;;;;;5048162;28;19956;-55
2022/12/04 09:21:08;;;;;;;;;;;18.70;39.60;;;;;;5047557;28;20349;-56
2022/12/04 09:23:34;;;;;;;;;;;18.70;39.60;;;;;;5048177;28;19913;-56
2022/12/04 09:25:59;;;;;;;;;;;18.70;39.50;;;;;;5049946;28;19920;-54
2022/12/04 09:28:25;;;;;;;;;;;18.80;39.40;;;;;;5048549;28;19952;-55
2022/12/04 09:31:01;;;;;;;;;;;18.80;39.30;;;;;;5029768;28;19980;-56
2022/12/04 09:33:26;;;;;;;;;;;18.80;39.30;;;;;;5048425;27;20010;-56
2022/12/04 09:35:52;;;;;;;;;;;18.80;39.30;;;;;;5047294;28;20357;-56
2022/12/04 09:38:17;;;;;;;;;;;18.80;39.30;;;;;;5047030;28;19913;-55
2022/12/04 09:40:51;;;;;;;;;;;18.80;39.30;;;;;;5048089;28;19946;-56
2022/12/04 09:43:20;;;;;;;;;;;18.80;39.30;;;;;;5033077;27;19920;-55
2022/12/04 09:45:47;;;;;;;;;;;18.80;39.30;;;;;;5043070;27;19927;-55
2022/12/04 09:48:13;;;;;;;;;;;18.80;39.20;;;;;;5031831;28;19917;-56
2022/12/04 09:50:39;;;;;;;;;;;18.80;39.30;;;;;;5033531;28;19912;-57
2022/12/04 09:53:05;;;;;;;;;;;18.80;39.30;;;;;;5052875;28;19917;-56
2022/12/04 09:55:45;;;;;;;;;;;18.80;39.30;;;;;;5047606;28;19935;-55
2022/12/04 09:58:12;;;;;;;;;;;18.80;39.30;;;;;;5056748;27;20012;-56
2022/12/04 10:00:38;;;;;;;;;;;18.80;39.30;;;;;;5057300;28;19913;-55
2022/12/04 10:03:09;;;;;;;;;;;18.80;39.30;;;;;;5056227;28;19919;-54
2022/12/04 10:05:39;;;;;;;;;;;18.80;39.40;;;;;;5049165;28;19931;-56
2022/12/04 10:08:14;;;;;;;;;;;18.70;39.50;;;;;;5050329;28;20270;-56
2022/12/04 10:10:41;;;;;;;;;;;18.70;39.60;;;;;;5047029;28;19950;-56
2022/12/04 10:13:25;;;;;;;;;;;18.70;39.60;;;;;;5052974;27;20384;-56
2022/12/04 10:16:09;;;;;;;;;;;18.70;39.60;;;;;;5046440;27;20317;-56
2022/12/04 10:18:49;;;;;;;;;;;18.70;39.60;;;;;;5045467;28;19977;-55
2022/12/04 10:21:24;;;;;;;;;;;18.70;39.50;;;;;;5035278;27;20048;-55
2022/12/04 10:24:00;;;;;;;;;;;18.70;39.40;;;;;;5038345;28;20011;-55
2022/12/04 10:26:28;;;;;;;;;;;18.70;39.40;;;;;;5030784;27;20182;-55
2022/12/04 10:28:58;;;;;;;;;;;18.70;39.40;;;;;;5029454;28;19913;-56
2022/12/04 10:31:23;;;;;;;;;;;18.70;39.30;;;;;;5028865;28;20780;-55
2022/12/04 10:33:52;;;;;;;;;;;18.70;40.00;;;;;;5028666;27;20008;-56
2022/12/04 10:36:22;;;;;;;;;;;18.70;39.30;;;;;;5035627;28;20561;-55
2022/12/04 10:38:51;;;;;;;;;;;18.80;39.40;;;;;;5035200;28;20384;-56
2022/12/04 10:41:35;;;;;;;;;;;18.70;39.30;;;;;;5042322;28;20594;-55
2022/12/04 10:44:01;;;;;;;;;;;18.80;39.40;;;;;;5035300;28;20319;-56
2022/12/04 10:46:27;;;;;;;;;;;18.80;39.30;;;;;;5040542;28;19920;-56
2022/12/04 10:48:57;;;;;;;;;;;18.80;39.30;;;;;;5041795;28;20374;-55
2022/12/04 10:51:22;;;;;;;;;;;18.80;39.30;;;;;;5039061;27;19927;-55
2022/12/04 10:53:48;;;;;;;;;;;18.90;39.30;;;;;;5039022;28;19917;-56
2022/12/04 10:56:16;;;;;;;;;;;18.90;39.30;;;;;;5031989;28;20021;-55
2022/12/04 10:58:42;;;;;;;;;;;18.90;39.30;;;;;;5034571;28;19944;-56
2022/12/04 11:01:09;;;;;;;;;;;18.90;39.30;;;;;;5038297;28;20364;-56
2022/12/04 11:03:34;;;;;;;;;;;19.00;39.50;;;;;;5040481;28;20395;-55
2022/12/04 11:06:01;;;;;;;;;;;19.00;39.50;;;;;;5039435;28;19990;-55
2022/12/04 11:08:32;;;;;;;;;;;19.00;39.60;;;;;;5045530;27;19992;-56
2022/12/04 11:11:01;;;;;;;;;;;19.00;39.50;;;;;;5038271;27;19916;-56
2022/12/04 11:13:27;;;;;;;;;;;19.00;39.50;;;;;;5035642;28;20566;-56
2022/12/04 11:15:53;;;;;;;;;;;19.00;39.50;;;;;;5034280;28;20003;-55
2022/12/04 11:18:18;;;;;;;;;;;19.10;39.60;;;;;;5038235;28;20026;-57
2022/12/04 11:20:54;;;;;;;;;;;19.10;39.50;;;;;;5044915;28;20007;-56
2022/12/04 11:23:20;;;;;;;;;;;19.10;39.60;;;;;;5055072;28;19940;-55
2022/12/04 11:25:50;;;;;;;;;;;19.10;39.50;;;;;;5043833;28;20033;-56
2022/12/04 11:28:16;;;;;;;;;;;19.10;39.50;;;;;;5050994;28;19916;-56
2022/12/04 11:30:45;;;;;;;;;;;19.10;39.50;;;;;;5050639;28;19912;-55
2022/12/04 11:33:16;;;;;;;;;;;19.10;39.50;;;;;;5046883;28;19924;-56
2022/12/04 11:35:41;;;;;;;;;;;19.10;39.50;;;;;;5058404;27;19920;-56
2022/12/04 11:38:13;;;;;;;;;;;19.10;39.60;;;;;;5059913;28;19913;-56
2022/12/04 11:40:39;;;;;;;;;;;19.10;39.60;;;;;;5077770;27;20271;-56
2022/12/04 11:43:05;;;;;;;;;;;19.10;39.60;;;;;;5043124;28;19920;-56
2022/12/04 11:45:30;;;;;;;;;;;19.10;39.60;;;;;;5049037;28;20028;-56
2022/12/04 11:47:58;;;;;;;;;;;19.20;39.80;;;;;;5056089;28;20007;-55
2022/12/04 11:50:27;;;;;;;;;;;19.20;39.70;;;;;;5053812;27;20025;-57
2022/12/04 11:52:57;;;;;;;;;;;19.20;39.70;;;;;;5062739;27;19913;-56
2022/12/04 11:55:23;;;;;;;;;;;19.20;39.90;;;;;;5051758;27;20001;-57
2022/12/04 11:57:52;;;;;;;;;;;19.10;39.70;;;;;;5057578;27;20007;-55
2022/12/04 12:00:18;;;;;;;;;;;19.10;39.90;;;;;;5058646;27;19920;-56
2022/12/04 12:02:54;;;;;;;;;;;19.10;39.90;;;;;;5061306;28;20003;-55
2022/12/04 12:05:19;;;;;;;;;;;19.10;40.00;;;;;;5058041;28;19913;-55
2022/12/04 12:07:44;;;;;;;;;;;19.10;40.10;;;;;;5061014;28;20528;-55
2022/12/04 12:10:13;;;;;;;;;;;19.10;40.30;;;;;;5061214;28;19920;-55
2022/12/04 12:12:40;;;;;;;;;;;19.10;40.30;;;;;;5059995;28;20420;-56
2022/12/04 12:15:16;;;;;;;;;;;19.10;40.30;;;;;;5043506;27;19974;-56
2022/12/04 12:18:00;;;;;;;;;;;19.10;40.40;;;;;;5061817;28;19967;-55
2022/12/04 12:20:29;;;;;;;;;;;19.00;40.30;;;;;;5061582;27;19924;-55
2022/12/04 12:23:18;;;;;;;;;;;19.00;40.50;;;;;;5049839;27;19917;-56
2022/12/04 12:25:46;;;;;;;;;;;19.00;40.60;;;;;;5053333;28;20395;-56
2022/12/04 12:28:12;;;;;;;;;;;19.00;40.80;;;;;;5055181;27;19913;-56
2022/12/04 12:30:50;;;;;;;;;;;18.90;40.90;;;;;;5064443;27;19968;-56
2022/12/04 12:33:19;;;;;;;;;;;18.80;41.10;;;;;;5056930;28;19924;-55
2022/12/04 12:35:46;;;;;;;;;;;18.70;41.20;;;;;;5046528;28;19920;-56
2022/12/04 12:38:16;;;;;;;;;;;18.70;41.40;;;;;;5053159;27;20278;-56
2022/12/04 12:40:43;;;;;;;;;;;18.70;41.60;;;;;;5043614;28;19953;-56
2022/12/04 12:43:08;;;;;;;;;;;18.70;41.60;;;;;;5059603;27;19917;-56
2022/12/04 12:45:43;;;;;;;;;;;18.70;41.60;;;;;;5043646;27;20053;-56
2022/12/04 12:48:27;;;;;;;;;;;18.70;41.60;;;;;;5063813;27;20380;-56
2022/12/04 12:51:12;;;;;;;;;;;18.70;41.50;;;;;;5067425;27;19913;-56
2022/12/04 12:53:38;;;;;;;;;;;18.70;41.50;;;;;;5057721;28;19948;-56
2022/12/04 12:56:04;;;;;;;;;;;18.80;41.60;;;;;;5044732;27;19917;-57
2022/12/04 12:58:29;;;;;;;;;;;18.70;41.60;;;;;;5060127;28;20083;-56
2022/12/04 13:00:57;;;;;;;;;;;18.70;41.80;;;;;;5059013;27;19961;-56
2022/12/04 13:03:31;;;;;;;;;;;18.70;42.00;;;;;;5062045;27;19964;-55
2022/12/04 13:05:59;;;;;;;;;;;18.60;42.20;;;;;;5059135;28;19913;-56
2022/12/04 13:08:26;;;;;;;;;;;18.60;42.20;;;;;;5062200;28;20343;-56
2022/12/04 13:10:51;;;;;;;;;;;18.60;42.30;;;;;;5061061;27;19913;-56
2022/12/04 13:13:22;;;;;;;;;;;18.60;42.30;;;;;;5057350;27;19957;-56
2022/12/04 13:15:49;;;;;;;;;;;18.60;42.20;;;;;;5075503;27;19999;-55
2022/12/04 13:18:24;;;;;;;;;;;18.60;42.10;;;;;;5061292;27;20329;-56
2022/12/04 13:20:51;;;;;;;;;;;18.60;42.30;;;;;;5062757;27;19920;-56
2022/12/04 13:23:26;;;;;;;;;;;18.60;42.40;;;;;;5053231;27;19925;-56
2022/12/04 13:25:55;;;;;;;;;;;18.60;42.40;;;;;;5051413;27;19921;-55
2022/12/04 13:28:28;;;;;;;;;;;18.60;42.30;;;;;;5060603;27;19917;-57
2022/12/04 13:30:54;;;;;;;;;;;18.60;42.40;;;;;;5062896;27;19923;-55
2022/12/04 13:33:38;;;;;;;;;;;18.70;42.60;;;;;;5066800;27;20364;-57
2022/12/04 13:36:22;;;;;;;;;;;18.60;42.50;;;;;;5060492;27;19956;-56
2022/12/04 13:38:53;;;;;;;;;;;18.70;42.60;;;;;;5073459;27;19913;-55
2022/12/04 13:41:22;;;;;;;;;;;18.70;42.60;;;;;;5076873;27;19911;-56
2022/12/04 13:43:48;;;;;;;;;;;18.70;42.50;;;;;;5051248;27;19920;-56
2022/12/04 13:46:23;;;;;;;;;;;18.70;42.90;;;;;;5059619;27;19921;-56
2022/12/04 13:48:48;;;;;;;;;;;18.70;42.90;;;;;;5060813;27;20449;-56
2022/12/04 13:51:21;;;;;;;;;;;18.70;42.90;;;;;;5054200;28;19920;-56
2022/12/04 13:53:47;;;;;;;;;;;18.70;42.90;;;;;;5038988;28;19916;-56
2022/12/04 13:56:25;;;;;;;;;;;18.70;42.70;;;;;;5047951;27;19943;-56
2022/12/04 13:59:01;;;;;;;;;;;18.70;42.50;;;;;;5067404;27;19938;-57
2022/12/04 14:01:34;;;;;;;;;;;18.70;42.50;;;;;;5055549;27;20325;-56
2022/12/04 14:04:00;;;;;;;;;;;18.70;42.30;;;;;;5041217;27;20509;-55
2022/12/04 14:06:29;;;;;;;;;;;18.70;42.20;;;;;;5072022;27;20003;-55
2022/12/04 14:08:55;;;;;;;;;;;18.70;42.00;;;;;;5060886;27;19916;-54
2022/12/04 14:11:22;;;;;;;;;;;18.70;41.90;;;;;;5049815;27;19928;-56
2022/12/04 14:13:48;;;;;;;;;;;18.70;41.80;;;;;;5058002;27;19920;-56
2022/12/04 14:16:16;;;;;;;;;;;18.80;41.80;;;;;;5057037;27;20282;-56
2022/12/04 14:18:45;;;;;;;;;;;18.80;41.70;;;;;;5055975;27;19919;-56
2022/12/04 14:21:10;;;;;;;;;;;18.80;41.60;;;;;;5058268;27;20447;-55
2022/12/04 14:23:37;;;;;;;;;;;18.80;41.60;;;;;;5060720;27;20004;-55
2022/12/04 14:26:04;;;;;;;;;;;18.80;41.50;;;;;;5050988;28;19920;-55
2022/12/04 14:28:29;;;;;;;;;;;18.80;41.50;;;;;;5059551;27;19913;-56
2022/12/04 14:31:03;;;;;;;;;;;18.90;41.40;;;;;;5045112;27;19920;-55
2022/12/04 14:33:30;;;;;;;;;;;18.90;41.60;;;;;;5050223;27;19916;-56